createdAt,value
2022-12-27T00:02:43.835Z,102198.88
2022-12-27T00:05:49.610Z,102197.06
2022-12-27T00:08:55.109Z,102209.56
2022-12-27T00:12:00.311Z,102205.44
2022-12-27T00:15:05.707Z,102213.91
2022-12-27T00:18:10.228Z,102201.97
2022-12-27T00:21:18.323Z,102208.88
2022-12-27T00:24:22.989Z,102206.97
2022-12-27T00:27:27.663Z,102209.75
2022-12-27T00:30:33.027Z,102212.28
2022-12-27T00:33:39.189Z,102204.81
2022-12-27T00:36:43.660Z,102189.44
2022-12-27T00:39:48.816Z,102197.56
2022-12-27T00:42:53.288Z,102187.88
2022-12-27T00:45:58.525Z,102185.84
2022-12-27T00:49:03.314Z,102161.03
2022-12-27T00:52:08.060Z,102189.41
2022-12-27T00:55:12.571Z,102176.59
2022-12-27T00:58:16.983Z,102189.59
2022-12-27T01:01:23.699Z,102173.72
2022-12-27T01:04:28.216Z,102181.78
2022-12-27T01:07:32.721Z,102182.44
2022-12-27T01:10:37.462Z,102186.84
2022-12-27T01:13:42.523Z,102173.94
2022-12-27T01:16:48.162Z,102180.16
2022-12-27T01:19:52.377Z,102180.56
2022-12-27T01:22:56.832Z,102163.34
2022-12-27T01:26:08.702Z,102179.00
2022-12-27T01:29:16.258Z,102175.97
2022-12-27T01:32:20.814Z,102182.34
2022-12-27T01:35:25.531Z,102170.19
2022-12-27T01:38:30.106Z,102177.25
2022-12-27T01:41:56.265Z,102168.66
2022-12-27T01:45:00.849Z,102156.53
2022-12-27T01:48:15.753Z,102059.19
2022-12-27T01:51:20.704Z,102154.97
2022-12-27T01:54:25.971Z,102148.94
2022-12-27T01:57:31.299Z,102138.06
2022-12-27T02:00:36.060Z,102142.63
2022-12-27T02:03:46.395Z,102133.63
2022-12-27T02:06:53.337Z,102129.72
2022-12-27T02:10:00.297Z,102135.72
2022-12-27T02:13:07.595Z,102121.81
2022-12-27T02:16:15.410Z,102095.78
2022-12-27T02:19:38.387Z,102110.31
2022-12-27T02:23:23.754Z,102089.72
2022-12-27T02:26:31.007Z,102108.75
2022-12-27T02:29:48.771Z,102107.66
2022-12-27T02:33:01.845Z,102095.28
2022-12-27T02:36:11.530Z,102084.03
2022-12-27T02:39:17.998Z,102093.44
2022-12-27T02:42:41.897Z,102090.84
2022-12-27T02:46:21.808Z,102074.31
2022-12-27T02:49:55.091Z,102086.97
2022-12-27T02:53:30.719Z,102079.13
2022-12-27T02:57:06.545Z,102075.53
2022-12-27T03:00:33.977Z,102069.72
2022-12-27T03:04:00.211Z,102061.50
2022-12-27T03:07:28.647Z,102063.66
2022-12-27T03:11:00.679Z,102058.53
2022-12-27T03:14:36.484Z,102052.06
2022-12-27T03:17:54.180Z,102058.53
2022-12-27T03:21:22.985Z,102042.41
2022-12-27T03:24:53.287Z,102045.50
2022-12-27T03:28:28.172Z,102038.72
2022-12-27T03:31:58.881Z,102053.50
2022-12-27T03:35:14.304Z,102054.75
2022-12-27T03:38:18.957Z,102049.94
2022-12-27T03:41:51.003Z,102045.31
2022-12-27T03:44:56.370Z,102048.31
2022-12-27T03:48:06.387Z,102034.66
2022-12-27T03:51:11.329Z,102043.41
2022-12-27T03:54:27.335Z,102038.53
2022-12-27T03:57:32.218Z,102014.44
2022-12-27T04:00:36.858Z,102025.81
2022-12-27T04:03:41.261Z,102028.06
2022-12-27T04:06:46.071Z,102010.63
2022-12-27T04:10:09.167Z,102011.03
2022-12-27T04:13:31.885Z,102009.72
2022-12-27T04:16:54.635Z,102006.75
2022-12-27T04:20:17.493Z,102010.78
2022-12-27T04:23:40.635Z,101999.88
2022-12-27T04:27:03.771Z,101996.59
2022-12-27T04:30:27.149Z,101995.63
2022-12-27T04:33:50.002Z,102004.00
2022-12-27T04:36:54.593Z,101996.09
2022-12-27T04:40:17.349Z,101993.34
2022-12-27T04:43:40.457Z,101981.69
2022-12-27T04:47:04.176Z,101987.59
2022-12-27T04:50:51.996Z,101987.09
2022-12-27T04:54:14.999Z,101977.06
2022-12-27T04:57:19.717Z,101979.41
2022-12-27T05:00:44.501Z,101974.00
2022-12-27T05:03:52.974Z,101977.50
2022-12-27T05:06:58.913Z,101980.88
2022-12-27T05:10:24.420Z,101975.75
2022-12-27T05:13:47.216Z,101974.78
2022-12-27T05:16:51.917Z,101971.28
2022-12-27T05:19:56.472Z,101964.09
2022-12-27T05:23:19.426Z,101973.63
2022-12-27T05:26:29.362Z,101966.91
2022-12-27T05:29:36.803Z,101972.47
2022-12-27T05:32:41.276Z,101965.22
2022-12-27T05:35:46.009Z,101983.28
2022-12-27T05:38:50.443Z,101972.63
2022-12-27T05:41:54.977Z,101980.97
2022-12-27T05:44:59.613Z,101978.03
2022-12-27T05:48:04.025Z,101965.25
2022-12-27T05:51:18.226Z,101974.41
2022-12-27T05:54:22.563Z,101987.25
2022-12-27T05:57:27.103Z,101975.06
2022-12-27T06:00:31.942Z,101969.56
2022-12-27T06:03:37.688Z,101960.00
2022-12-27T06:06:42.100Z,101983.69
2022-12-27T06:09:46.635Z,101947.81
2022-12-27T06:12:51.257Z,101989.41
2022-12-27T06:15:55.732Z,101987.72
2022-12-27T06:19:00.561Z,101977.75
2022-12-27T06:22:05.359Z,101953.19
2022-12-27T06:25:14.118Z,101965.00
2022-12-27T06:28:19.131Z,101984.63
2022-12-27T06:31:24.588Z,102000.25
2022-12-27T06:34:29.165Z,101980.38
2022-12-27T06:37:33.735Z,101964.88
2022-12-27T06:40:38.176Z,101972.44
2022-12-27T06:43:43.017Z,101981.19
2022-12-27T06:46:47.513Z,101980.28
2022-12-27T06:49:51.967Z,101972.78
2022-12-27T06:52:57.126Z,101964.16
2022-12-27T06:56:07.414Z,101985.00
2022-12-27T06:59:11.875Z,101974.03
2022-12-27T07:02:16.513Z,101965.94
2022-12-27T07:05:21.006Z,101982.31
2022-12-27T07:08:25.404Z,101958.00
2022-12-27T07:11:30.015Z,101957.66
2022-12-27T07:14:34.630Z,101964.84
2022-12-27T07:17:40.161Z,101957.69
2022-12-27T07:20:45.229Z,101962.38
2022-12-27T07:23:50.306Z,101948.94
2022-12-27T07:26:54.839Z,101935.28
2022-12-27T07:29:59.411Z,101957.00
2022-12-27T07:33:04.036Z,101953.97
2022-12-27T07:36:13.633Z,101945.13
2022-12-27T07:39:18.403Z,101955.44
2022-12-27T07:42:22.988Z,101967.84
2022-12-27T07:45:27.454Z,101946.00
2022-12-27T07:48:32.064Z,101957.53
2022-12-27T07:51:36.685Z,101948.81
2022-12-27T07:54:41.716Z,101928.66
2022-12-27T07:57:46.164Z,101945.69
2022-12-27T08:00:52.633Z,101949.72
2022-12-27T08:03:57.299Z,101943.03
2022-12-27T08:07:17.192Z,101944.75
2022-12-27T08:10:21.617Z,101925.56
2022-12-27T08:13:26.696Z,101929.78
2022-12-27T08:16:31.293Z,101924.94
2022-12-27T08:19:36.444Z,101932.56
2022-12-27T08:22:40.967Z,101924.09
2022-12-27T08:25:48.946Z,101930.25
2022-12-27T08:28:53.736Z,101912.22
2022-12-27T08:31:58.367Z,101932.09
2022-12-27T08:35:25.195Z,101919.84
2022-12-27T08:38:27.318Z,101920.13
2022-12-27T08:41:32.039Z,101910.16
2022-12-27T08:44:36.650Z,101901.91
2022-12-27T08:47:42.370Z,101898.31
2022-12-27T08:50:48.147Z,101835.69
2022-12-27T08:53:52.311Z,101892.72
2022-12-27T08:56:56.862Z,101887.31
2022-12-27T09:00:01.605Z,101894.25
2022-12-27T09:03:08.346Z,101887.66
2022-12-27T09:06:20.100Z,101902.34
2022-12-27T09:09:24.517Z,101896.19
2022-12-27T09:12:28.844Z,101873.22
2022-12-27T09:15:33.419Z,101878.59
2022-12-27T09:18:38.884Z,101892.81
2022-12-27T09:21:44.912Z,101892.03
2022-12-27T09:24:49.304Z,101892.81
2022-12-27T09:27:56.041Z,101890.44
2022-12-27T09:31:03.015Z,101891.50
2022-12-27T09:34:07.560Z,101894.91
2022-12-27T09:37:12.951Z,101887.06
2022-12-27T09:40:21.519Z,101718.53
2022-12-27T09:43:55.656Z,101857.19
2022-12-27T09:47:26.401Z,101891.16
2022-12-27T09:51:09.270Z,101722.00
2022-12-27T09:54:20.654Z,101883.19
2022-12-27T09:57:34.491Z,101888.31
2022-12-27T10:00:42.595Z,101889.53
2022-12-27T10:03:56.208Z,101880.63
2022-12-27T10:07:38.549Z,101883.53
2022-12-27T10:10:44.978Z,101888.00
2022-12-27T10:14:06.847Z,101887.13
2022-12-27T10:17:33.447Z,101879.66
2022-12-27T10:20:41.645Z,101885.44
2022-12-27T10:23:53.855Z,101875.22
2022-12-27T10:26:58.782Z,101869.66
2022-12-27T10:30:04.560Z,101863.59
2022-12-27T10:33:21.283Z,101882.59
2022-12-27T10:36:29.320Z,101864.09
2022-12-27T10:39:38.140Z,101875.88
2022-12-27T10:42:54.273Z,101872.81
2022-12-27T10:46:12.156Z,101869.06
2022-12-27T10:49:32.514Z,101868.53
2022-12-27T10:52:39.898Z,101824.53
2022-12-27T10:55:44.588Z,101863.03
2022-12-27T10:58:58.837Z,101874.09
2022-12-27T11:02:03.790Z,101863.47
2022-12-27T11:05:27.817Z,101856.63
2022-12-27T11:08:32.885Z,101853.69
2022-12-27T11:11:37.255Z,101848.94
2022-12-27T11:15:03.064Z,101818.25
2022-12-27T11:18:19.695Z,101845.69
2022-12-27T11:21:27.810Z,101826.53
2022-12-27T11:24:32.947Z,101850.56
2022-12-27T11:27:38.436Z,101843.63
2022-12-27T11:30:51.843Z,101835.59
2022-12-27T11:34:18.093Z,101837.38
2022-12-27T11:37:25.936Z,101823.81
2022-12-27T11:40:35.568Z,101833.34
2022-12-27T11:43:49.042Z,101827.56
2022-12-27T11:47:15.744Z,101826.19
2022-12-27T11:50:23.162Z,101831.69
2022-12-27T11:53:33.489Z,101829.09
2022-12-27T11:56:46.487Z,101824.88
2022-12-27T12:00:20.828Z,101833.69
2022-12-27T12:04:08.205Z,101819.03
2022-12-27T12:07:34.158Z,101838.19
2022-12-27T12:11:04.581Z,101819.59
2022-12-27T12:14:41.243Z,101815.31
2022-12-27T12:18:16.742Z,101818.06
2022-12-27T12:21:34.816Z,101812.28
2022-12-27T12:25:09.061Z,101808.84
2022-12-27T12:28:57.816Z,101802.25
2022-12-27T12:32:26.664Z,101803.81
2022-12-27T12:36:05.762Z,101805.03
2022-12-27T12:39:23.773Z,101798.84
2022-12-27T12:42:41.470Z,101787.53
2022-12-27T12:46:01.587Z,101794.97
2022-12-27T12:49:17.549Z,101796.19
2022-12-27T12:52:34.029Z,101789.72
2022-12-27T12:56:01.193Z,101784.81
2022-12-27T12:59:11.590Z,101800.91
2022-12-27T13:02:37.990Z,101795.75
2022-12-27T13:06:15.418Z,101794.97
2022-12-27T13:09:39.440Z,101797.41
2022-12-27T13:12:59.624Z,101785.88
2022-12-27T13:16:12.847Z,101800.19
2022-12-27T13:19:44.357Z,101802.00
2022-12-27T13:22:57.703Z,101772.66
2022-12-27T13:26:08.774Z,101790.34
2022-12-27T13:29:35.920Z,101783.72
2022-12-27T13:33:22.709Z,101773.09
2022-12-27T13:37:00.051Z,101732.63
2022-12-27T13:40:16.749Z,101763.06
2022-12-27T13:43:52.715Z,101766.50
2022-12-27T13:47:15.273Z,101771.00
2022-12-27T13:50:44.269Z,101774.25
2022-12-27T13:54:15.079Z,101774.34
2022-12-27T13:57:36.606Z,101762.34
2022-12-27T14:01:08.133Z,101763.72
2022-12-27T14:04:52.315Z,101760.72
2022-12-27T14:08:10.287Z,101757.78
2022-12-27T14:11:42.402Z,101741.22
2022-12-27T14:14:50.760Z,101732.66
2022-12-27T14:18:13.089Z,101754.88
2022-12-27T14:21:38.802Z,101741.91
2022-12-27T14:25:27.290Z,101735.22
2022-12-27T14:28:43.306Z,101665.72
2022-12-27T14:31:47.345Z,101745.75
2022-12-27T14:35:21.719Z,101735.53
2022-12-27T14:38:50.562Z,101725.66
2022-12-27T14:42:25.525Z,101721.50
2022-12-27T14:45:57.048Z,101725.28
2022-12-27T14:49:38.889Z,101721.22
2022-12-27T14:53:12.471Z,101715.91
2022-12-27T14:56:45.744Z,101704.34
2022-12-27T15:00:03.339Z,101703.69
2022-12-27T15:03:41.579Z,101693.44
2022-12-27T15:06:49.268Z,101702.03
2022-12-27T15:10:12.005Z,101693.47
2022-12-27T15:13:46.792Z,101689.38
2022-12-27T15:17:19.075Z,101676.13
2022-12-27T15:20:33.141Z,101672.59
2022-12-27T15:24:09.602Z,101666.81
2022-12-27T15:27:34.875Z,101669.75
2022-12-27T15:31:07.885Z,101662.53
2022-12-27T15:34:26.340Z,101671.00
2022-12-27T15:37:53.027Z,101672.81
2022-12-27T15:41:09.324Z,101665.59
2022-12-27T15:44:26.293Z,101669.53
2022-12-27T15:48:11.161Z,101664.19
2022-12-27T15:51:23.143Z,101655.91
2022-12-27T15:55:00.019Z,101664.41
2022-12-27T15:58:23.491Z,101668.97
2022-12-27T16:01:30.674Z,101633.22
2022-12-27T16:04:52.828Z,101650.53
2022-12-27T16:08:01.198Z,101661.03
2022-12-27T16:11:11.173Z,101660.22
2022-12-27T16:14:31.152Z,101635.78
2022-12-27T16:17:55.940Z,101634.66
2022-12-27T16:21:04.672Z,101648.63
2022-12-27T16:24:17.743Z,101638.31
2022-12-27T16:27:31.968Z,101644.00
2022-12-27T16:30:46.427Z,101635.66
2022-12-27T16:33:52.369Z,101611.06
2022-12-27T16:37:00.217Z,101600.91
2022-12-27T16:40:18.281Z,101632.66
2022-12-27T16:43:22.778Z,101624.28
2022-12-27T16:46:45.505Z,101573.72
2022-12-27T16:50:14.788Z,101627.47
2022-12-27T16:53:44.840Z,101625.88
2022-12-27T16:56:50.080Z,101600.84
2022-12-27T16:59:58.868Z,101617.34
2022-12-27T17:03:30.724Z,101622.22
2022-12-27T17:06:38.641Z,101620.53
2022-12-27T17:09:45.056Z,101620.94
2022-12-27T17:12:54.967Z,101631.34
2022-12-27T17:16:07.684Z,101624.50
2022-12-27T17:19:40.444Z,101631.09
2022-12-27T17:22:45.574Z,101623.66
2022-12-27T17:26:00.269Z,101629.72
2022-12-27T17:29:10.191Z,101632.88
2022-12-27T17:32:55.908Z,101633.53
2022-12-27T17:36:05.847Z,101629.81
2022-12-27T17:39:16.580Z,101623.88
2022-12-27T17:42:56.332Z,101622.09
2022-12-27T17:46:42.690Z,101622.03
2022-12-27T17:49:48.847Z,101610.81
2022-12-27T17:53:31.614Z,101621.41
2022-12-27T17:57:07.074Z,101623.00
2022-12-27T18:00:27.813Z,101546.56
2022-12-27T18:03:45.793Z,101610.50
2022-12-27T18:06:54.737Z,101615.72
2022-12-27T18:10:03.942Z,101595.22
2022-12-27T18:13:08.941Z,101599.31
2022-12-27T18:16:40.978Z,101596.38
2022-12-27T18:19:45.482Z,101590.78
2022-12-27T18:22:49.863Z,101599.09
2022-12-27T18:25:57.939Z,101593.53
2022-12-27T18:29:02.778Z,101576.44
2022-12-27T18:32:10.080Z,101581.56
2022-12-27T18:35:24.263Z,101568.72
2022-12-27T18:38:36.993Z,101583.72
2022-12-27T18:41:53.503Z,101585.13
2022-12-27T18:45:09.593Z,101580.41
2022-12-27T18:48:14.105Z,101573.56
2022-12-27T18:51:18.554Z,101560.88
2022-12-27T18:54:37.166Z,101579.44
2022-12-27T18:57:41.720Z,101559.97
2022-12-27T19:01:11.618Z,101575.41
2022-12-27T19:04:19.250Z,101564.09
2022-12-27T19:07:23.929Z,101561.25
2022-12-27T19:10:30.851Z,101560.00
2022-12-27T19:13:50.571Z,101557.16
2022-12-27T19:16:58.206Z,101547.41
2022-12-27T19:20:06.635Z,101449.34
2022-12-27T19:23:31.843Z,101538.72
2022-12-27T19:26:36.381Z,101540.78
2022-12-27T19:29:52.979Z,101502.44
2022-12-27T19:32:57.504Z,101528.94
2022-12-27T19:36:05.369Z,101530.03
2022-12-27T19:39:33.325Z,101517.94
2022-12-27T19:42:37.813Z,101510.56
2022-12-27T19:45:42.301Z,101518.06
2022-12-27T19:49:07.590Z,101465.47
2022-12-27T19:52:23.298Z,101512.34
2022-12-27T19:55:28.254Z,101508.31
2022-12-27T19:58:33.004Z,101512.41
2022-12-27T20:01:37.341Z,101505.72
2022-12-27T20:04:41.813Z,101503.31
2022-12-27T20:07:46.484Z,101501.66
2022-12-27T20:10:52.885Z,101500.75
2022-12-27T20:13:57.542Z,101484.09
2022-12-27T20:17:02.036Z,101497.28
2022-12-27T20:20:07.637Z,101473.81
2022-12-27T20:23:14.200Z,101504.31
2022-12-27T20:26:21.736Z,101438.06
2022-12-27T20:29:26.780Z,101500.16
2022-12-27T20:32:32.977Z,101488.69
2022-12-27T20:35:37.580Z,101494.97
2022-12-27T20:38:42.138Z,101488.63
2022-12-27T20:41:46.707Z,101474.47
2022-12-27T20:44:51.221Z,101483.81
2022-12-27T20:47:55.630Z,101442.47
2022-12-27T20:51:00.150Z,101462.88
2022-12-27T20:54:05.528Z,101486.03
2022-12-27T20:57:10.079Z,101494.31
2022-12-27T21:00:15.658Z,101466.59
2022-12-27T21:03:20.222Z,101456.09
2022-12-27T21:06:27.719Z,101469.69
2022-12-27T21:09:32.391Z,101465.66
2022-12-27T21:12:36.995Z,101468.38
2022-12-27T21:15:42.669Z,101464.03
2022-12-27T21:18:48.752Z,101458.69
2022-12-27T21:21:53.291Z,101465.47
2022-12-27T21:24:57.799Z,101466.47
2022-12-27T21:28:02.293Z,101463.25
2022-12-27T21:31:08.102Z,101477.53
2022-12-27T21:34:12.517Z,101472.09
2022-12-27T21:37:17.007Z,101465.47
2022-12-27T21:40:21.642Z,101468.13
2022-12-27T21:43:28.669Z,101458.41
2022-12-27T21:46:37.034Z,101471.50
2022-12-27T21:49:42.346Z,101457.63
2022-12-27T21:52:46.842Z,101464.47
2022-12-27T21:55:59.431Z,101438.06
2022-12-27T21:59:06.356Z,101467.69
2022-12-27T22:02:11.283Z,101455.84
2022-12-27T22:05:16.082Z,101463.00
2022-12-27T22:08:20.861Z,101461.88
2022-12-27T22:11:26.386Z,101451.06
2022-12-27T22:14:36.620Z,101420.59
2022-12-27T22:17:41.566Z,101445.25
2022-12-27T22:20:47.151Z,101440.84
2022-12-27T22:23:53.833Z,101427.56
2022-12-27T22:26:58.452Z,101402.16
2022-12-27T22:30:04.176Z,101420.94
2022-12-27T22:33:08.875Z,101436.06
2022-12-27T22:36:16.428Z,101428.34
2022-12-27T22:39:20.997Z,101427.47
2022-12-27T22:42:25.304Z,101414.63
2022-12-27T22:45:30.124Z,101419.56
2022-12-27T22:48:34.772Z,101417.19
2022-12-27T22:51:41.286Z,101423.91
2022-12-27T22:55:04.100Z,101416.31
2022-12-27T22:58:10.168Z,101424.78
2022-12-27T23:01:15.557Z,101391.31
2022-12-27T23:04:19.945Z,101400.38
2022-12-27T23:08:04.410Z,101416.00
2022-12-27T23:10:48.987Z,101417.41
2022-12-27T23:13:58.942Z,101422.34
2022-12-27T23:17:03.336Z,101394.97
2022-12-27T23:20:08.462Z,101403.56
2022-12-27T23:23:12.794Z,101404.41
2022-12-27T23:26:19.651Z,101412.56
2022-12-27T23:29:24.473Z,101395.84
2022-12-27T23:32:29.159Z,101401.47
2022-12-27T23:35:35.128Z,101415.69
2022-12-27T23:38:40.417Z,101421.94
2022-12-27T23:41:44.950Z,101405.63
2022-12-27T23:44:49.481Z,101423.25
2022-12-27T23:47:53.937Z,101404.25
2022-12-27T23:50:58.420Z,101407.63
2022-12-27T23:54:02.875Z,101422.50
2022-12-27T23:57:20.307Z,101426.66
